sensor_id;sensor_type;location;lat;lon;timestamp;P1;durP1;ratioP1;P2;durP2;ratioP2
75061;SDS011;63641;46.526;24.612;2023-11-19T00:00:09;5.78;;;4.90;;
75061;SDS011;63641;46.526;24.612;2023-11-19T00:02:40;5.30;;;4.50;;
75061;SDS011;63641;46.526;24.612;2023-11-19T00:05:09;5.68;;;5.18;;
75061;SDS011;63641;46.526;24.612;2023-11-19T00:07:38;4.95;;;4.53;;
75061;SDS011;63641;46.526;24.612;2023-11-19T00:10:09;4.85;;;4.45;;
75061;SDS011;63641;46.526;24.612;2023-11-19T00:12:38;5.63;;;5.10;;
75061;SDS011;63641;46.526;24.612;2023-11-19T00:15:09;4.88;;;4.38;;
75061;SDS011;63641;46.526;24.612;2023-11-19T00:17:38;5.10;;;4.68;;
75061;SDS011;63641;46.526;24.612;2023-11-19T00:22:40;4.47;;;4.07;;
75061;SDS011;63641;46.526;24.612;2023-11-19T00:25:10;5.35;;;4.85;;
75061;SDS011;63641;46.526;24.612;2023-11-19T00:27:37;5.85;;;4.82;;
75061;SDS011;63641;46.526;24.612;2023-11-19T00:30:05;4.72;;;4.22;;
75061;SDS011;63641;46.526;24.612;2023-11-19T00:32:34;5.18;;;4.68;;
75061;SDS011;63641;46.526;24.612;2023-11-19T00:35:02;4.90;;;4.38;;
75061;SDS011;63641;46.526;24.612;2023-11-19T00:37:29;5.10;;;4.70;;
75061;SDS011;63641;46.526;24.612;2023-11-19T00:39:56;5.68;;;4.88;;
75061;SDS011;63641;46.526;24.612;2023-11-19T00:42:23;5.00;;;4.57;;
75061;SDS011;63641;46.526;24.612;2023-11-19T00:44:51;5.15;;;4.65;;
75061;SDS011;63641;46.526;24.612;2023-11-19T00:47:18;5.65;;;4.68;;
75061;SDS011;63641;46.526;24.612;2023-11-19T00:49:47;6.47;;;4.93;;
75061;SDS011;63641;46.526;24.612;2023-11-19T00:52:17;5.30;;;4.80;;
75061;SDS011;63641;46.526;24.612;2023-11-19T00:54:45;4.97;;;4.40;;
75061;SDS011;63641;46.526;24.612;2023-11-19T00:57:11;4.93;;;4.53;;
75061;SDS011;63641;46.526;24.612;2023-11-19T00:59:40;4.95;;;4.45;;
75061;SDS011;63641;46.526;24.612;2023-11-19T01:02:08;5.25;;;4.75;;
75061;SDS011;63641;46.526;24.612;2023-11-19T01:04:35;5.07;;;4.55;;
75061;SDS011;63641;46.526;24.612;2023-11-19T01:07:03;4.70;;;4.28;;
75061;SDS011;63641;46.526;24.612;2023-11-19T01:09:31;5.13;;;4.63;;
75061;SDS011;63641;46.526;24.612;2023-11-19T01:11:59;5.07;;;4.38;;
75061;SDS011;63641;46.526;24.612;2023-11-19T01:14:27;5.35;;;4.85;;
75061;SDS011;63641;46.526;24.612;2023-11-19T01:16:54;4.80;;;4.40;;
75061;SDS011;63641;46.526;24.612;2023-11-19T01:19:21;4.82;;;4.43;;
75061;SDS011;63641;46.526;24.612;2023-11-19T01:21:49;5.65;;;4.90;;
75061;SDS011;63641;46.526;24.612;2023-11-19T01:24:16;5.15;;;4.65;;
75061;SDS011;63641;46.526;24.612;2023-11-19T01:26:43;5.38;;;4.68;;
75061;SDS011;63641;46.526;24.612;2023-11-19T01:29:12;5.00;;;4.50;;
75061;SDS011;63641;46.526;24.612;2023-11-19T01:31:42;4.85;;;4.45;;
75061;SDS011;63641;46.526;24.612;2023-11-19T01:34:11;4.80;;;4.35;;
75061;SDS011;63641;46.526;24.612;2023-11-19T01:36:38;5.22;;;4.72;;
75061;SDS011;63641;46.526;24.612;2023-11-19T01:39:05;5.13;;;4.65;;
75061;SDS011;63641;46.526;24.612;2023-11-19T01:41:36;5.65;;;5.15;;
75061;SDS011;63641;46.526;24.612;2023-11-19T01:44:03;4.57;;;4.18;;
75061;SDS011;63641;46.526;24.612;2023-11-19T01:46:30;5.03;;;4.53;;
75061;SDS011;63641;46.526;24.612;2023-11-19T01:48:59;4.45;;;3.95;;
75061;SDS011;63641;46.526;24.612;2023-11-19T01:51:27;5.28;;;4.75;;
75061;SDS011;63641;46.526;24.612;2023-11-19T01:53:54;4.78;;;4.28;;
75061;SDS011;63641;46.526;24.612;2023-11-19T01:56:23;5.20;;;4.70;;
75061;SDS011;63641;46.526;24.612;2023-11-19T01:58:52;5.15;;;4.63;;
75061;SDS011;63641;46.526;24.612;2023-11-19T02:01:21;4.85;;;4.45;;
75061;SDS011;63641;46.526;24.612;2023-11-19T02:03:48;4.65;;;4.22;;
75061;SDS011;63641;46.526;24.612;2023-11-19T02:06:15;4.65;;;4.25;;
75061;SDS011;63641;46.526;24.612;2023-11-19T02:08:42;5.13;;;4.40;;
75061;SDS011;63641;46.526;24.612;2023-11-19T02:11:10;5.57;;;5.07;;
75061;SDS011;63641;46.526;24.612;2023-11-19T02:13:38;5.00;;;4.50;;
75061;SDS011;63641;46.526;24.612;2023-11-19T02:16:07;4.80;;;4.40;;
75061;SDS011;63641;46.526;24.612;2023-11-19T02:18:38;5.22;;;4.47;;
75061;SDS011;63641;46.526;24.612;2023-11-19T02:21:05;5.10;;;4.63;;
75061;SDS011;63641;46.526;24.612;2023-11-19T02:23:32;5.18;;;4.68;;
75061;SDS011;63641;46.526;24.612;2023-11-19T02:26:03;4.40;;;4.00;;
75061;SDS011;63641;46.526;24.612;2023-11-19T02:28:40;4.70;;;4.30;;
75061;SDS011;63641;46.526;24.612;2023-11-19T02:31:08;5.35;;;4.05;;
75061;SDS011;63641;46.526;24.612;2023-11-19T02:33:38;5.88;;;5.30;;
75061;SDS011;63641;46.526;24.612;2023-11-19T02:36:06;8.85;;;5.57;;
75061;SDS011;63641;46.526;24.612;2023-11-19T02:38:33;6.45;;;5.85;;
75061;SDS011;63641;46.526;24.612;2023-11-19T02:41:05;6.63;;;6.00;;
75061;SDS011;63641;46.526;24.612;2023-11-19T02:43:33;7.38;;;6.00;;
75061;SDS011;63641;46.526;24.612;2023-11-19T02:46:03;6.75;;;6.10;;
75061;SDS011;63641;46.526;24.612;2023-11-19T02:48:36;6.85;;;6.15;;
75061;SDS011;63641;46.526;24.612;2023-11-19T02:51:03;6.82;;;6.18;;
75061;SDS011;63641;46.526;24.612;2023-11-19T02:53:31;7.10;;;6.40;;
75061;SDS011;63641;46.526;24.612;2023-11-19T02:55:58;7.95;;;6.68;;
75061;SDS011;63641;46.526;24.612;2023-11-19T02:58:32;6.80;;;6.10;;
75061;SDS011;63641;46.526;24.612;2023-11-19T03:01:01;7.53;;;6.70;;
75061;SDS011;63641;46.526;24.612;2023-11-19T03:03:37;6.82;;;6.13;;
75061;SDS011;63641;46.526;24.612;2023-11-19T03:06:07;7.05;;;6.40;;
75061;SDS011;63641;46.526;24.612;2023-11-19T03:08:35;6.57;;;5.97;;
75061;SDS011;63641;46.526;24.612;2023-11-19T03:11:02;8.98;;;7.32;;
75061;SDS011;63641;46.526;24.612;2023-11-19T03:13:31;7.30;;;6.55;;
75061;SDS011;63641;46.526;24.612;2023-11-19T03:15:57;6.90;;;6.25;;
75061;SDS011;63641;46.526;24.612;2023-11-19T03:18:24;8.20;;;7.40;;
75061;SDS011;63641;46.526;24.612;2023-11-19T03:20:51;8.27;;;7.47;;
75061;SDS011;63641;46.526;24.612;2023-11-19T03:23:18;8.25;;;7.40;;
75061;SDS011;63641;46.526;24.612;2023-11-19T03:25:45;8.35;;;7.60;;
75061;SDS011;63641;46.526;24.612;2023-11-19T03:28:11;8.18;;;7.38;;
75061;SDS011;63641;46.526;24.612;2023-11-19T03:30:38;7.38;;;6.65;;
75061;SDS011;63641;46.526;24.612;2023-11-19T03:33:05;7.40;;;6.70;;
75061;SDS011;63641;46.526;24.612;2023-11-19T03:35:32;6.75;;;6.13;;
75061;SDS011;63641;46.526;24.612;2023-11-19T03:37:59;6.75;;;6.15;;
75061;SDS011;63641;46.526;24.612;2023-11-19T03:40:27;7.00;;;6.38;;
75061;SDS011;63641;46.526;24.612;2023-11-19T03:42:57;74.78;;;10.25;;
75061;SDS011;63641;46.526;24.612;2023-11-19T03:45:25;7.22;;;6.55;;
75061;SDS011;63641;46.526;24.612;2023-11-19T03:47:52;7.07;;;6.47;;
75061;SDS011;63641;46.526;24.612;2023-11-19T03:50:18;7.32;;;6.72;;
75061;SDS011;63641;46.526;24.612;2023-11-19T03:52:47;6.85;;;6.25;;
75061;SDS011;63641;46.526;24.612;2023-11-19T03:55:14;7.60;;;6.53;;
75061;SDS011;63641;46.526;24.612;2023-11-19T03:57:41;6.40;;;5.70;;
75061;SDS011;63641;46.526;24.612;2023-11-19T04:00:08;7.40;;;6.78;;
75061;SDS011;63641;46.526;24.612;2023-11-19T04:02:37;6.70;;;6.07;;
75061;SDS011;63641;46.526;24.612;2023-11-19T04:05:04;7.05;;;6.35;;
75061;SDS011;63641;46.526;24.612;2023-11-19T04:07:31;6.32;;;5.72;;
75061;SDS011;63641;46.526;24.612;2023-11-19T04:09:58;6.38;;;5.78;;
75061;SDS011;63641;46.526;24.612;2023-11-19T04:12:26;6.78;;;6.18;;
75061;SDS011;63641;46.526;24.612;2023-11-19T04:14:52;6.38;;;5.78;;
75061;SDS011;63641;46.526;24.612;2023-11-19T04:17:22;6.55;;;5.95;;
75061;SDS011;63641;46.526;24.612;2023-11-19T04:19:49;5.95;;;5.45;;
75061;SDS011;63641;46.526;24.612;2023-11-19T04:22:16;9.50;;;7.00;;
75061;SDS011;63641;46.526;24.612;2023-11-19T04:24:43;7.50;;;6.80;;
75061;SDS011;63641;46.526;24.612;2023-11-19T04:27:12;9.10;;;7.22;;
75061;SDS011;63641;46.526;24.612;2023-11-19T04:29:39;8.15;;;7.30;;
75061;SDS011;63641;46.526;24.612;2023-11-19T04:32:05;7.75;;;6.93;;
75061;SDS011;63641;46.526;24.612;2023-11-19T04:34:32;7.55;;;6.85;;
75061;SDS011;63641;46.526;24.612;2023-11-19T04:36:59;8.10;;;7.40;;
75061;SDS011;63641;46.526;24.612;2023-11-19T04:39:32;8.32;;;7.63;;
75061;SDS011;63641;46.526;24.612;2023-11-19T04:41:59;7.82;;;7.00;;
75061;SDS011;63641;46.526;24.612;2023-11-19T04:44:25;7.10;;;6.38;;
75061;SDS011;63641;46.526;24.612;2023-11-19T04:46:52;7.50;;;6.22;;
75061;SDS011;63641;46.526;24.612;2023-11-19T04:49:19;7.15;;;6.45;;
75061;SDS011;63641;46.526;24.612;2023-11-19T04:51:47;7.03;;;6.30;;
75061;SDS011;63641;46.526;24.612;2023-11-19T04:54:14;7.90;;;7.10;;
75061;SDS011;63641;46.526;24.612;2023-11-19T04:56:44;7.20;;;6.60;;
75061;SDS011;63641;46.526;24.612;2023-11-19T04:59:11;7.68;;;6.93;;
75061;SDS011;63641;46.526;24.612;2023-11-19T05:01:40;7.55;;;6.85;;
75061;SDS011;63641;46.526;24.612;2023-11-19T05:04:07;7.85;;;7.00;;
75061;SDS011;63641;46.526;24.612;2023-11-19T05:06:34;7.22;;;6.53;;
75061;SDS011;63641;46.526;24.612;2023-11-19T05:09:01;7.65;;;6.88;;
75061;SDS011;63641;46.526;24.612;2023-11-19T05:11:34;7.03;;;6.18;;
75061;SDS011;63641;46.526;24.612;2023-11-19T05:14:02;7.70;;;6.97;;
75061;SDS011;63641;46.526;24.612;2023-11-19T05:16:32;8.98;;;7.43;;
75061;SDS011;63641;46.526;24.612;2023-11-19T05:18:59;7.88;;;7.07;;
75061;SDS011;63641;46.526;24.612;2023-11-19T05:21:26;8.07;;;7.32;;
75061;SDS011;63641;46.526;24.612;2023-11-19T05:23:52;6.95;;;6.25;;
75061;SDS011;63641;46.526;24.612;2023-11-19T05:26:21;8.65;;;7.75;;
75061;SDS011;63641;46.526;24.612;2023-11-19T05:28:48;9.35;;;8.27;;
75061;SDS011;63641;46.526;24.612;2023-11-19T05:31:16;10.45;;;8.80;;
75061;SDS011;63641;46.526;24.612;2023-11-19T05:33:44;8.52;;;7.65;;
75061;SDS011;63641;46.526;24.612;2023-11-19T05:36:11;9.18;;;8.27;;
75061;SDS011;63641;46.526;24.612;2023-11-19T05:38:39;9.45;;;7.80;;
75061;SDS011;63641;46.526;24.612;2023-11-19T05:41:06;9.57;;;8.30;;
75061;SDS011;63641;46.526;24.612;2023-11-19T05:43:33;8.32;;;7.53;;
75061;SDS011;63641;46.526;24.612;2023-11-19T05:45:59;8.32;;;7.45;;
75061;SDS011;63641;46.526;24.612;2023-11-19T05:48:28;9.10;;;7.70;;
75061;SDS011;63641;46.526;24.612;2023-11-19T05:50:55;9.38;;;7.60;;
75061;SDS011;63641;46.526;24.612;2023-11-19T05:53:21;8.90;;;8.02;;
75061;SDS011;63641;46.526;24.612;2023-11-19T05:55:48;10.13;;;8.43;;
75061;SDS011;63641;46.526;24.612;2023-11-19T05:58:24;9.65;;;8.50;;
75061;SDS011;63641;46.526;24.612;2023-11-19T06:00:52;10.27;;;8.15;;
75061;SDS011;63641;46.526;24.612;2023-11-19T06:03:19;9.73;;;8.30;;
75061;SDS011;63641;46.526;24.612;2023-11-19T06:05:48;9.70;;;8.70;;
75061;SDS011;63641;46.526;24.612;2023-11-19T06:08:15;8.90;;;8.07;;
75061;SDS011;63641;46.526;24.612;2023-11-19T06:10:43;9.52;;;8.68;;
75061;SDS011;63641;46.526;24.612;2023-11-19T06:13:13;9.48;;;8.32;;
75061;SDS011;63641;46.526;24.612;2023-11-19T06:15:42;10.32;;;8.20;;
75061;SDS011;63641;46.526;24.612;2023-11-19T06:18:09;8.50;;;7.47;;
75061;SDS011;63641;46.526;24.612;2023-11-19T06:20:38;8.93;;;8.02;;
75061;SDS011;63641;46.526;24.612;2023-11-19T06:23:08;7.63;;;6.75;;
75061;SDS011;63641;46.526;24.612;2023-11-19T06:25:35;6.70;;;6.10;;
75061;SDS011;63641;46.526;24.612;2023-11-19T06:28:02;8.25;;;6.75;;
75061;SDS011;63641;46.526;24.612;2023-11-19T06:30:29;7.43;;;6.72;;
75061;SDS011;63641;46.526;24.612;2023-11-19T06:32:58;7.75;;;6.95;;
75061;SDS011;63641;46.526;24.612;2023-11-19T06:35:26;6.97;;;6.38;;
75061;SDS011;63641;46.526;24.612;2023-11-19T06:37:56;7.70;;;6.72;;
75061;SDS011;63641;46.526;24.612;2023-11-19T06:40:23;8.20;;;7.38;;
75061;SDS011;63641;46.526;24.612;2023-11-19T06:42:52;9.15;;;7.63;;
75061;SDS011;63641;46.526;24.612;2023-11-19T06:45:18;7.97;;;6.80;;
75061;SDS011;63641;46.526;24.612;2023-11-19T06:47:46;8.55;;;7.32;;
75061;SDS011;63641;46.526;24.612;2023-11-19T06:50:13;7.93;;;7.22;;
75061;SDS011;63641;46.526;24.612;2023-11-19T06:52:41;9.45;;;8.55;;
75061;SDS011;63641;46.526;24.612;2023-11-19T06:55:08;8.20;;;7.05;;
75061;SDS011;63641;46.526;24.612;2023-11-19T06:57:35;8.50;;;7.30;;
75061;SDS011;63641;46.526;24.612;2023-11-19T07:00:05;8.00;;;7.20;;
75061;SDS011;63641;46.526;24.612;2023-11-19T07:02:33;7.55;;;6.63;;
75061;SDS011;63641;46.526;24.612;2023-11-19T07:05:00;7.85;;;7.05;;
75061;SDS011;63641;46.526;24.612;2023-11-19T07:07:27;7.70;;;7.00;;
75061;SDS011;63641;46.526;24.612;2023-11-19T07:09:54;10.32;;;6.80;;
75061;SDS011;63641;46.526;24.612;2023-11-19T07:12:21;9.38;;;7.43;;
75061;SDS011;63641;46.526;24.612;2023-11-19T07:14:47;8.13;;;6.90;;
75061;SDS011;63641;46.526;24.612;2023-11-19T07:17:14;6.75;;;6.13;;
75061;SDS011;63641;46.526;24.612;2023-11-19T07:19:41;7.18;;;6.18;;
75061;SDS011;63641;46.526;24.612;2023-11-19T07:22:08;7.20;;;6.50;;
75061;SDS011;63641;46.526;24.612;2023-11-19T07:24:35;7.15;;;6.55;;
75061;SDS011;63641;46.526;24.612;2023-11-19T07:27:02;7.28;;;6.57;;
75061;SDS011;63641;46.526;24.612;2023-11-19T07:29:30;6.85;;;6.15;;
75061;SDS011;63641;46.526;24.612;2023-11-19T07:31:58;6.65;;;6.05;;
75061;SDS011;63641;46.526;24.612;2023-11-19T07:34:24;6.75;;;6.15;;
75061;SDS011;63641;46.526;24.612;2023-11-19T07:36:51;7.70;;;6.47;;
75061;SDS011;63641;46.526;24.612;2023-11-19T07:39:18;6.85;;;6.25;;
75061;SDS011;63641;46.526;24.612;2023-11-19T07:41:47;7.13;;;6.43;;
75061;SDS011;63641;46.526;24.612;2023-11-19T07:44:14;7.65;;;6.70;;
75061;SDS011;63641;46.526;24.612;2023-11-19T07:46:41;7.95;;;7.18;;
75061;SDS011;63641;46.526;24.612;2023-11-19T07:49:08;7.03;;;6.32;;
75061;SDS011;63641;46.526;24.612;2023-11-19T07:51:36;6.88;;;6.28;;
75061;SDS011;63641;46.526;24.612;2023-11-19T07:54:03;8.13;;;7.32;;
75061;SDS011;63641;46.526;24.612;2023-11-19T07:56:31;7.07;;;6.38;;
75061;SDS011;63641;46.526;24.612;2023-11-19T07:59:01;7.30;;;6.60;;
75061;SDS011;63641;46.526;24.612;2023-11-19T08:01:28;8.90;;;6.65;;
75061;SDS011;63641;46.526;24.612;2023-11-19T08:03:55;10.93;;;6.55;;
75061;SDS011;63641;46.526;24.612;2023-11-19T08:06:25;8.07;;;7.35;;
75061;SDS011;63641;46.526;24.612;2023-11-19T08:08:52;8.75;;;7.95;;
75061;SDS011;63641;46.526;24.612;2023-11-19T08:11:18;8.30;;;7.43;;
75061;SDS011;63641;46.526;24.612;2023-11-19T08:13:48;8.55;;;7.65;;
75061;SDS011;63641;46.526;24.612;2023-11-19T08:16:15;8.02;;;7.13;;
75061;SDS011;63641;46.526;24.612;2023-11-19T08:18:45;10.45;;;7.45;;
75061;SDS011;63641;46.526;24.612;2023-11-19T08:21:12;7.95;;;7.20;;
75061;SDS011;63641;46.526;24.612;2023-11-19T08:23:38;9.07;;;7.72;;
75061;SDS011;63641;46.526;24.612;2023-11-19T08:26:05;8.75;;;6.85;;
75061;SDS011;63641;46.526;24.612;2023-11-19T08:28:33;8.60;;;7.80;;
75061;SDS011;63641;46.526;24.612;2023-11-19T08:31:01;9.10;;;8.20;;
75061;SDS011;63641;46.526;24.612;2023-11-19T08:33:31;8.77;;;7.95;;
75061;SDS011;63641;46.526;24.612;2023-11-19T08:35:58;8.45;;;7.65;;
75061;SDS011;63641;46.526;24.612;2023-11-19T08:38:25;9.63;;;7.63;;
75061;SDS011;63641;46.526;24.612;2023-11-19T08:40:54;7.85;;;7.15;;
75061;SDS011;63641;46.526;24.612;2023-11-19T08:43:26;9.82;;;7.80;;
75061;SDS011;63641;46.526;24.612;2023-11-19T08:45:53;7.75;;;7.00;;
75061;SDS011;63641;46.526;24.612;2023-11-19T08:48:20;8.43;;;7.55;;
75061;SDS011;63641;46.526;24.612;2023-11-19T08:50:47;8.15;;;7.22;;
75061;SDS011;63641;46.526;24.612;2023-11-19T08:53:14;8.52;;;7.63;;
75061;SDS011;63641;46.526;24.612;2023-11-19T08:55:41;9.07;;;7.78;;
75061;SDS011;63641;46.526;24.612;2023-11-19T08:58:08;9.30;;;8.38;;
75061;SDS011;63641;46.526;24.612;2023-11-19T09:00:35;9.70;;;8.20;;
75061;SDS011;63641;46.526;24.612;2023-11-19T09:03:02;9.60;;;8.70;;
75061;SDS011;63641;46.526;24.612;2023-11-19T09:05:30;8.52;;;7.72;;
75061;SDS011;63641;46.526;24.612;2023-11-19T09:07:56;8.10;;;7.30;;
75061;SDS011;63641;46.526;24.612;2023-11-19T09:10:23;9.05;;;7.97;;
75061;SDS011;63641;46.526;24.612;2023-11-19T09:12:50;8.50;;;7.70;;
75061;SDS011;63641;46.526;24.612;2023-11-19T09:15:16;14.30;;;7.93;;
75061;SDS011;63641;46.526;24.612;2023-11-19T09:17:43;9.35;;;7.88;;
75061;SDS011;63641;46.526;24.612;2023-11-19T09:20:10;9.43;;;8.45;;
75061;SDS011;63641;46.526;24.612;2023-11-19T09:22:41;9.13;;;8.23;;
75061;SDS011;63641;46.526;24.612;2023-11-19T09:25:08;8.90;;;8.00;;
75061;SDS011;63641;46.526;24.612;2023-11-19T09:27:35;8.60;;;7.80;;
75061;SDS011;63641;46.526;24.612;2023-11-19T09:30:02;8.82;;;7.93;;
75061;SDS011;63641;46.526;24.612;2023-11-19T09:32:30;9.25;;;8.35;;
75061;SDS011;63641;46.526;24.612;2023-11-19T09:34:57;9.48;;;8.55;;
75061;SDS011;63641;46.526;24.612;2023-11-19T09:37:24;9.55;;;8.55;;
75061;SDS011;63641;46.526;24.612;2023-11-19T09:39:50;9.38;;;8.18;;
75061;SDS011;63641;46.526;24.612;2023-11-19T09:42:17;10.32;;;8.98;;
75061;SDS011;63641;46.526;24.612;2023-11-19T09:44:44;11.57;;;10.27;;
75061;SDS011;63641;46.526;24.612;2023-11-19T09:47:12;10.10;;;8.95;;
75061;SDS011;63641;46.526;24.612;2023-11-19T09:49:40;9.55;;;8.55;;
75061;SDS011;63641;46.526;24.612;2023-11-19T09:52:07;10.43;;;8.25;;
75061;SDS011;63641;46.526;24.612;2023-11-19T09:54:34;10.45;;;9.00;;
75061;SDS011;63641;46.526;24.612;2023-11-19T09:57:01;9.27;;;8.25;;
75061;SDS011;63641;46.526;24.612;2023-11-19T09:59:32;9.85;;;8.82;;
75061;SDS011;63641;46.526;24.612;2023-11-19T10:01:59;9.82;;;8.82;;
75061;SDS011;63641;46.526;24.612;2023-11-19T10:04:28;9.57;;;8.57;;
75061;SDS011;63641;46.526;24.612;2023-11-19T10:06:57;10.95;;;8.73;;
75061;SDS011;63641;46.526;24.612;2023-11-19T10:09:23;10.43;;;9.40;;
75061;SDS011;63641;46.526;24.612;2023-11-19T10:11:50;12.38;;;9.05;;
75061;SDS011;63641;46.526;24.612;2023-11-19T10:14:19;9.48;;;8.18;;
75061;SDS011;63641;46.526;24.612;2023-11-19T10:16:50;11.30;;;9.27;;
75061;SDS011;63641;46.526;24.612;2023-11-19T10:19:20;8.77;;;7.78;;
75061;SDS011;63641;46.526;24.612;2023-11-19T10:21:49;13.63;;;10.32;;
75061;SDS011;63641;46.526;24.612;2023-11-19T10:24:16;10.45;;;8.90;;
75061;SDS011;63641;46.526;24.612;2023-11-19T10:26:45;15.00;;;12.60;;
75061;SDS011;63641;46.526;24.612;2023-11-19T10:29:12;12.43;;;9.65;;
75061;SDS011;63641;46.526;24.612;2023-11-19T10:31:41;9.95;;;9.05;;
75061;SDS011;63641;46.526;24.612;2023-11-19T10:34:25;9.93;;;8.93;;
75061;SDS011;63641;46.526;24.612;2023-11-19T10:36:53;11.75;;;10.43;;
75061;SDS011;63641;46.526;24.612;2023-11-19T10:39:20;13.13;;;11.15;;
75061;SDS011;63641;46.526;24.612;2023-11-19T10:41:47;12.07;;;9.98;;
75061;SDS011;63641;46.526;24.612;2023-11-19T10:44:30;14.25;;;12.55;;
75061;SDS011;63641;46.526;24.612;2023-11-19T10:46:58;13.75;;;10.88;;
75061;SDS011;63641;46.526;24.612;2023-11-19T10:49:25;12.06;;;10.84;;
75061;SDS011;63641;46.526;24.612;2023-11-19T10:51:52;9.68;;;8.70;;
75061;SDS011;63641;46.526;24.612;2023-11-19T10:54:23;10.27;;;9.25;;
75061;SDS011;63641;46.526;24.612;2023-11-19T10:56:54;11.00;;;9.90;;
75061;SDS011;63641;46.526;24.612;2023-11-19T10:59:25;10.90;;;9.80;;
75061;SDS011;63641;46.526;24.612;2023-11-19T11:02:00;11.93;;;10.35;;
75061;SDS011;63641;46.526;24.612;2023-11-19T11:04:32;13.60;;;11.10;;
75061;SDS011;63641;46.526;24.612;2023-11-19T11:07:06;13.73;;;10.57;;
75061;SDS011;63641;46.526;24.612;2023-11-19T11:09:35;11.07;;;9.95;;
75061;SDS011;63641;46.526;24.612;2023-11-19T11:12:02;10.80;;;9.07;;
75061;SDS011;63641;46.526;24.612;2023-11-19T11:14:37;10.27;;;7.70;;
75061;SDS011;63641;46.526;24.612;2023-11-19T11:17:04;10.20;;;8.60;;
75061;SDS011;63641;46.526;24.612;2023-11-19T11:19:34;9.30;;;8.30;;
75061;SDS011;63641;46.526;24.612;2023-11-19T11:22:02;8.65;;;7.75;;
75061;SDS011;63641;46.526;24.612;2023-11-19T11:24:35;8.52;;;7.63;;
75061;SDS011;63641;46.526;24.612;2023-11-19T11:30:08;8.77;;;7.97;;
75061;SDS011;63641;46.526;24.612;2023-11-19T11:38:31;8.93;;;8.02;;
75061;SDS011;63641;46.526;24.612;2023-11-19T11:43:55;8.55;;;7.65;;
75061;SDS011;63641;46.526;24.612;2023-11-19T11:48:59;8.80;;;7.90;;
75061;SDS011;63641;46.526;24.612;2023-11-19T12:02:07;11.73;;;7.40;;
75061;SDS011;63641;46.526;24.612;2023-11-19T12:04:35;7.90;;;7.10;;
75061;SDS011;63641;46.526;24.612;2023-11-19T12:07:24;8.48;;;7.65;;
75061;SDS011;63641;46.526;24.612;2023-11-19T12:10:05;8.70;;;7.90;;
75061;SDS011;63641;46.526;24.612;2023-11-19T12:12:39;7.80;;;7.00;;
75061;SDS011;63641;46.526;24.612;2023-11-19T12:15:08;7.60;;;6.90;;
75061;SDS011;63641;46.526;24.612;2023-11-19T12:17:41;8.90;;;7.57;;
75061;SDS011;63641;46.526;24.612;2023-11-19T12:20:12;7.90;;;7.20;;
75061;SDS011;63641;46.526;24.612;2023-11-19T12:22:39;7.70;;;7.00;;
75061;SDS011;63641;46.526;24.612;2023-11-19T12:25:08;7.15;;;6.45;;
75061;SDS011;63641;46.526;24.612;2023-11-19T12:27:36;7.75;;;6.95;;
75061;SDS011;63641;46.526;24.612;2023-11-19T12:30:04;7.10;;;6.40;;
75061;SDS011;63641;46.526;24.612;2023-11-19T12:32:39;8.07;;;7.28;;
75061;SDS011;63641;46.526;24.612;2023-11-19T12:35:10;7.75;;;7.05;;
75061;SDS011;63641;46.526;24.612;2023-11-19T12:37:41;7.78;;;7.03;;
75061;SDS011;63641;46.526;24.612;2023-11-19T12:40:20;7.53;;;6.85;;
75061;SDS011;63641;46.526;24.612;2023-11-19T12:42:50;7.78;;;6.95;;
75061;SDS011;63641;46.526;24.612;2023-11-19T12:45:19;8.23;;;7.18;;
75061;SDS011;63641;46.526;24.612;2023-11-19T12:47:47;6.70;;;6.07;;
75061;SDS011;63641;46.526;24.612;2023-11-19T12:50:16;8.45;;;7.60;;
75061;SDS011;63641;46.526;24.612;2023-11-19T12:52:56;7.63;;;6.82;;
75061;SDS011;63641;46.526;24.612;2023-11-19T12:55:26;7.70;;;6.95;;
75061;SDS011;63641;46.526;24.612;2023-11-19T12:57:57;7.78;;;6.97;;
75061;SDS011;63641;46.526;24.612;2023-11-19T13:00:28;7.35;;;6.65;;
75061;SDS011;63641;46.526;24.612;2023-11-19T13:02:56;8.95;;;6.65;;
75061;SDS011;63641;46.526;24.612;2023-11-19T13:05:27;7.40;;;6.63;;
75061;SDS011;63641;46.526;24.612;2023-11-19T13:08:00;8.07;;;7.30;;
75061;SDS011;63641;46.526;24.612;2023-11-19T13:10:49;7.70;;;6.90;;
75061;SDS011;63641;46.526;24.612;2023-11-19T13:13:17;8.02;;;7.22;;
75061;SDS011;63641;46.526;24.612;2023-11-19T13:15:44;7.35;;;6.57;;
75061;SDS011;63641;46.526;24.612;2023-11-19T13:18:12;12.18;;;8.40;;
75061;SDS011;63641;46.526;24.612;2023-11-19T13:20:42;8.65;;;7.35;;
75061;SDS011;63641;46.526;24.612;2023-11-19T13:23:09;8.38;;;7.50;;
75061;SDS011;63641;46.526;24.612;2023-11-19T13:25:42;8.02;;;7.22;;
75061;SDS011;63641;46.526;24.612;2023-11-19T13:28:10;7.65;;;6.95;;
75061;SDS011;63641;46.526;24.612;2023-11-19T13:30:36;7.72;;;7.03;;
75061;SDS011;63641;46.526;24.612;2023-11-19T13:33:03;7.25;;;6.55;;
75061;SDS011;63641;46.526;24.612;2023-11-19T13:35:30;7.15;;;6.35;;
75061;SDS011;63641;46.526;24.612;2023-11-19T13:37:56;8.60;;;6.95;;
75061;SDS011;63641;46.526;24.612;2023-11-19T13:40:23;7.63;;;6.82;;
75061;SDS011;63641;46.526;24.612;2023-11-19T13:42:51;95.80;;;12.25;;
75061;SDS011;63641;46.526;24.612;2023-11-19T13:45:18;7.90;;;7.10;;
75061;SDS011;63641;46.526;24.612;2023-11-19T13:47:47;8.00;;;7.00;;
75061;SDS011;63641;46.526;24.612;2023-11-19T13:50:14;7.30;;;6.60;;
75061;SDS011;63641;46.526;24.612;2023-11-19T13:52:43;7.80;;;6.95;;
75061;SDS011;63641;46.526;24.612;2023-11-19T13:55:14;35.30;;;7.65;;
75061;SDS011;63641;46.526;24.612;2023-11-19T13:57:41;7.07;;;6.38;;
75061;SDS011;63641;46.526;24.612;2023-11-19T14:00:12;7.82;;;6.97;;
75061;SDS011;63641;46.526;24.612;2023-11-19T14:02:40;8.00;;;6.95;;
75061;SDS011;63641;46.526;24.612;2023-11-19T14:05:07;7.65;;;6.55;;
75061;SDS011;63641;46.526;24.612;2023-11-19T14:07:36;9.02;;;7.97;;
75061;SDS011;63641;46.526;24.612;2023-11-19T14:10:03;10.43;;;7.78;;
75061;SDS011;63641;46.526;24.612;2023-11-19T14:12:36;8.95;;;7.93;;
75061;SDS011;63641;46.526;24.612;2023-11-19T14:15:06;8.23;;;7.43;;
75061;SDS011;63641;46.526;24.612;2023-11-19T14:17:40;8.68;;;7.75;;
75061;SDS011;63641;46.526;24.612;2023-11-19T14:20:07;15.07;;;13.68;;
75061;SDS011;63641;46.526;24.612;2023-11-19T14:22:42;8.13;;;7.25;;
75061;SDS011;63641;46.526;24.612;2023-11-19T14:25:10;8.20;;;7.40;;
75061;SDS011;63641;46.526;24.612;2023-11-19T14:27:37;8.55;;;7.65;;
75061;SDS011;63641;46.526;24.612;2023-11-19T14:30:05;8.90;;;8.00;;
75061;SDS011;63641;46.526;24.612;2023-11-19T14:32:33;8.25;;;7.45;;
75061;SDS011;63641;46.526;24.612;2023-11-19T14:35:00;9.00;;;8.10;;
75061;SDS011;63641;46.526;24.612;2023-11-19T14:37:26;11.20;;;8.10;;
75061;SDS011;63641;46.526;24.612;2023-11-19T14:39:53;8.10;;;7.30;;
75061;SDS011;63641;46.526;24.612;2023-11-19T14:42:20;8.32;;;7.53;;
75061;SDS011;63641;46.526;24.612;2023-11-19T14:44:46;8.30;;;7.50;;
75061;SDS011;63641;46.526;24.612;2023-11-19T14:47:13;7.97;;;7.25;;
75061;SDS011;63641;46.526;24.612;2023-11-19T14:49:40;22.35;;;17.55;;
75061;SDS011;63641;46.526;24.612;2023-11-19T14:52:06;10.27;;;9.00;;
75061;SDS011;63641;46.526;24.612;2023-11-19T14:54:37;8.95;;;7.75;;
75061;SDS011;63641;46.526;24.612;2023-11-19T14:57:07;8.50;;;7.70;;
75061;SDS011;63641;46.526;24.612;2023-11-19T14:59:37;8.35;;;7.07;;
75061;SDS011;63641;46.526;24.612;2023-11-19T15:02:03;8.57;;;7.55;;
75061;SDS011;63641;46.526;24.612;2023-11-19T15:04:31;8.70;;;7.85;;
75061;SDS011;63641;46.526;24.612;2023-11-19T15:06:59;8.27;;;7.47;;